createdAt,value
2024-02-23T00:04:27.755Z,12.06
2024-02-23T00:09:29.537Z,12.08
2024-02-23T00:14:37.157Z,12.18
2024-02-23T00:19:38.869Z,12.19
2024-02-23T00:24:41.814Z,12.21
2024-02-23T00:29:43.460Z,11.79
2024-02-23T00:34:45.099Z,11.99
2024-02-23T00:39:46.691Z,12.00
2024-02-23T00:44:48.174Z,11.78
2024-02-23T00:49:49.693Z,11.94
2024-02-23T00:54:51.098Z,11.86
2024-02-23T00:59:52.571Z,11.88
2024-02-23T01:04:57.988Z,11.74
2024-02-23T01:09:59.863Z,11.79
2024-02-23T01:15:05.200Z,11.78
2024-02-23T01:20:07.805Z,11.56
2024-02-23T01:25:09.311Z,11.54
2024-02-23T01:30:10.967Z,11.58
2024-02-23T01:35:12.569Z,11.48
2024-02-23T01:40:14.212Z,11.64
2024-02-23T01:45:15.651Z,11.42
2024-02-23T01:50:17.356Z,11.58
2024-02-23T01:55:21.297Z,11.55
2024-02-23T02:00:22.869Z,11.46
2024-02-23T02:05:29.758Z,11.36
2024-02-23T02:10:31.397Z,11.39
2024-02-23T02:15:32.933Z,11.35
2024-02-23T02:20:34.966Z,11.13
2024-02-23T02:25:43.412Z,11.14
2024-02-23T02:30:44.880Z,10.98
2024-02-23T02:35:46.401Z,11.02
2024-02-23T02:40:47.986Z,10.83
2024-02-23T02:45:49.402Z,10.91
2024-02-23T02:50:54.276Z,10.90
2024-02-23T02:55:56.099Z,10.67
2024-02-23T03:00:57.566Z,10.85
2024-02-23T03:05:59.117Z,10.69
2024-02-23T03:11:00.756Z,10.64
2024-02-23T03:16:02.166Z,10.53
2024-02-23T03:21:03.828Z,10.43
2024-02-23T03:26:05.322Z,10.29
2024-02-23T03:31:07.683Z,10.17
2024-02-23T03:36:09.203Z,10.03
2024-02-23T03:41:10.855Z,9.94
2024-02-23T03:46:12.991Z,9.89
2024-02-23T03:51:14.582Z,9.91
2024-02-23T03:56:16.265Z,9.73
2024-02-23T04:01:18.789Z,9.54
2024-02-23T04:06:20.315Z,9.52
2024-02-23T04:11:21.893Z,9.47
2024-02-23T04:16:25.827Z,9.30
2024-02-23T04:21:27.533Z,9.17
2024-02-23T04:26:28.998Z,9.12
2024-02-23T04:31:30.502Z,8.98
2024-02-23T04:36:31.994Z,9.02
2024-02-23T04:41:33.809Z,8.88
2024-02-23T04:46:35.627Z,8.90
2024-02-23T04:51:37.240Z,8.96
2024-02-23T04:56:38.871Z,8.90
2024-02-23T05:01:40.436Z,8.87
2024-02-23T05:06:43.842Z,8.62
2024-02-23T05:11:47.141Z,8.59
2024-02-23T05:16:48.850Z,8.67
2024-02-23T05:21:50.382Z,8.62
2024-02-23T05:26:51.899Z,8.52
2024-02-23T05:31:54.135Z,8.44
2024-02-23T05:36:55.692Z,8.44
2024-02-23T05:41:58.313Z,8.45
2024-02-23T05:47:00.018Z,8.33
2024-02-23T05:52:01.528Z,8.44
2024-02-23T05:57:03.915Z,8.24
2024-02-23T06:02:05.640Z,8.21
2024-02-23T06:07:07.377Z,8.20
2024-02-23T06:12:09.710Z,8.20
2024-02-23T06:17:11.308Z,8.16
2024-02-23T06:22:13.389Z,8.29
2024-02-23T06:27:14.888Z,8.25
2024-02-23T06:32:17.207Z,8.02
2024-02-23T06:37:18.738Z,8.04
2024-02-23T06:42:20.233Z,8.02
2024-02-23T06:47:21.761Z,7.96
2024-02-23T06:52:24.449Z,8.04
2024-02-23T06:57:26.968Z,8.03
2024-02-23T07:02:28.745Z,7.94
2024-02-23T07:07:31.319Z,7.85
2024-02-23T07:12:32.918Z,7.87
2024-02-23T07:17:34.461Z,8.00
2024-02-23T07:22:37.414Z,7.98
2024-02-23T07:27:38.951Z,8.02
2024-02-23T07:32:40.511Z,8.12
2024-02-23T07:37:42.735Z,8.10
2024-02-23T07:42:44.283Z,8.07
2024-02-23T07:47:45.902Z,8.02
2024-02-23T07:52:47.511Z,8.03
2024-02-23T07:57:49.557Z,8.09
2024-02-23T08:02:51.940Z,8.16
2024-02-23T08:07:53.669Z,8.26
2024-02-23T08:12:55.210Z,8.16
2024-02-23T08:17:56.964Z,8.15
2024-02-23T08:22:58.562Z,8.18
2024-02-23T08:28:00.557Z,8.09
2024-02-23T08:33:02.143Z,8.10
2024-02-23T08:38:03.777Z,8.33
2024-02-23T08:43:05.303Z,8.27
2024-02-23T08:48:08.021Z,8.64
2024-02-23T08:53:09.673Z,8.60
2024-02-23T08:58:11.220Z,8.68
2024-02-23T09:03:12.737Z,8.83
2024-02-23T09:08:14.275Z,9.12
2024-02-23T09:13:16.479Z,9.05
2024-02-23T09:18:18.036Z,9.11
2024-02-23T09:23:19.823Z,9.15
2024-02-23T09:28:21.527Z,9.24
2024-02-23T09:33:23.139Z,9.14
2024-02-23T09:38:25.861Z,9.20
2024-02-23T09:43:30.120Z,9.16
2024-02-23T09:48:34.960Z,9.42
2024-02-23T09:53:38.841Z,9.50
2024-02-23T09:58:42.903Z,9.45
2024-02-23T10:03:46.120Z,9.23
2024-02-23T10:08:47.641Z,9.68
2024-02-23T10:13:53.286Z,9.61
2024-02-23T10:18:54.911Z,9.45
2024-02-23T10:23:56.614Z,9.56
2024-02-23T10:28:59.572Z,9.39
2024-02-23T10:34:01.590Z,9.56
2024-02-23T10:39:05.497Z,10.01
2024-02-23T10:44:08.319Z,9.66
2024-02-23T10:49:12.079Z,9.95
2024-02-23T10:54:14.101Z,9.60
2024-02-23T10:59:19.398Z,9.57
2024-02-23T11:04:22.643Z,9.51
2024-02-23T11:09:25.473Z,9.55
2024-02-23T11:14:36.178Z,9.54
2024-02-23T11:19:40.506Z,9.79
2024-02-23T11:24:46.545Z,9.82
2024-02-23T11:29:51.087Z,9.78
2024-02-23T11:34:59.483Z,9.82
2024-02-23T11:40:03.428Z,9.72
2024-02-23T11:45:05.374Z,10.02
2024-02-23T11:50:11.713Z,9.72
2024-02-23T11:55:14.038Z,9.67
2024-02-23T12:00:16.797Z,9.57
2024-02-23T12:05:18.606Z,9.71
2024-02-23T12:10:20.331Z,9.78
2024-02-23T12:15:21.912Z,9.95
2024-02-23T12:20:24.291Z,9.69
2024-02-23T12:25:26.013Z,9.75
2024-02-23T12:30:29.707Z,9.83
2024-02-23T12:35:39.404Z,10.21
2024-02-23T12:40:40.962Z,10.36
2024-02-23T12:45:42.533Z,10.49
2024-02-23T12:50:45.708Z,10.53
2024-02-23T12:55:47.232Z,10.29
2024-02-23T13:00:48.733Z,10.36
2024-02-23T13:05:50.762Z,10.30
2024-02-23T13:10:54.496Z,10.21
2024-02-23T13:15:56.142Z,10.21
2024-02-23T13:20:57.717Z,10.30
2024-02-23T13:25:59.303Z,10.26
2024-02-23T13:31:00.826Z,10.17
2024-02-23T13:36:02.324Z,10.11
2024-02-23T13:41:03.845Z,10.40
2024-02-23T13:46:05.504Z,10.07
2024-02-23T13:51:07.076Z,10.13
2024-02-23T13:56:08.576Z,10.27
2024-02-23T14:01:10.207Z,10.20
2024-02-23T14:06:11.802Z,10.08
2024-02-23T14:11:13.354Z,10.08
2024-02-23T14:16:14.819Z,9.73
2024-02-23T14:21:17.431Z,9.69
2024-02-23T14:26:18.934Z,9.72
2024-02-23T14:31:20.606Z,9.91
2024-02-23T14:36:23.111Z,9.86
2024-02-23T14:41:24.905Z,9.63
2024-02-23T14:46:26.410Z,9.62
2024-02-23T14:51:27.980Z,9.61
2024-02-23T14:56:29.404Z,9.62
2024-02-23T15:01:31.410Z,9.32
2024-02-23T15:06:33.235Z,9.26
2024-02-23T15:11:35.127Z,9.24
2024-02-23T15:16:37.323Z,9.31
2024-02-23T15:21:41.507Z,9.14
2024-02-23T15:26:43.180Z,9.44
2024-02-23T15:31:44.758Z,10.00
2024-02-23T15:36:46.244Z,9.47
2024-02-23T15:41:47.800Z,8.96
2024-02-23T15:46:49.250Z,9.03
2024-02-23T15:51:56.707Z,8.98
2024-02-23T15:57:02.504Z,8.89
2024-02-23T16:02:04.955Z,9.23
2024-02-23T16:07:07.921Z,8.73
2024-02-23T16:12:11.575Z,8.96
2024-02-23T16:17:13.255Z,9.30
2024-02-23T16:22:14.860Z,8.58
2024-02-23T16:27:16.711Z,8.60
2024-02-23T16:32:18.231Z,8.56
2024-02-23T16:37:19.820Z,8.37
2024-02-23T16:42:21.444Z,8.58
2024-02-23T16:47:22.885Z,9.36
2024-02-23T16:52:24.380Z,8.64
2024-02-23T16:57:25.881Z,9.83
2024-02-23T17:02:27.410Z,9.60
2024-02-23T17:07:29.253Z,9.83
2024-02-23T17:12:30.876Z,9.89
2024-02-23T17:17:32.416Z,9.81
2024-02-23T17:22:34.136Z,9.77
2024-02-23T17:27:35.759Z,9.67
2024-02-23T17:32:37.675Z,9.37
2024-02-23T17:37:39.231Z,9.24
2024-02-23T17:42:40.744Z,9.56
2024-02-23T17:47:42.370Z,9.39
2024-02-23T17:52:44.343Z,9.29
2024-02-23T17:57:45.945Z,9.31
2024-02-23T18:02:47.468Z,9.34
2024-02-23T18:07:48.976Z,9.26
2024-02-23T18:12:50.516Z,9.17
2024-02-23T18:17:52.544Z,7.79
2024-02-23T18:22:54.214Z,8.78
2024-02-23T18:27:55.641Z,7.81
2024-02-23T18:32:57.287Z,8.47
2024-02-23T18:37:58.868Z,8.44
2024-02-23T18:43:00.373Z,8.42
2024-02-23T18:48:02.058Z,7.96
2024-02-23T18:53:03.813Z,8.69
2024-02-23T18:58:06.844Z,8.68
2024-02-23T19:03:08.366Z,8.60
2024-02-23T19:08:09.874Z,8.62
2024-02-23T19:13:11.413Z,8.57
2024-02-23T19:18:13.268Z,8.50
2024-02-23T19:23:14.812Z,8.43
2024-02-23T19:28:16.347Z,8.42
2024-02-23T19:33:17.903Z,8.39
2024-02-23T19:38:19.525Z,8.29
2024-02-23T19:43:20.992Z,8.32
2024-02-23T19:48:22.476Z,8.26
2024-02-23T19:53:24.104Z,8.06
2024-02-23T19:58:25.570Z,8.14
2024-02-23T20:03:27.156Z,8.11
2024-02-23T20:08:28.697Z,8.12
2024-02-23T20:13:30.789Z,7.96
2024-02-23T20:18:32.485Z,7.93
2024-02-23T20:23:35.037Z,7.97
2024-02-23T20:28:36.611Z,7.88
2024-02-23T20:33:38.381Z,7.79
2024-02-23T20:38:40.148Z,7.77
2024-02-23T20:43:41.701Z,7.81
2024-02-23T20:48:43.713Z,7.76
2024-02-23T20:53:45.619Z,7.62
2024-02-23T20:58:47.203Z,7.54
2024-02-23T21:03:48.716Z,7.60
2024-02-23T21:08:50.247Z,7.01
2024-02-23T21:13:51.721Z,7.35
2024-02-23T21:18:53.295Z,6.95
2024-02-23T21:23:55.994Z,5.68
2024-02-23T21:28:57.756Z,5.44
2024-02-23T21:33:59.353Z,6.27
2024-02-23T21:39:00.900Z,6.92
2024-02-23T21:44:02.743Z,7.03
2024-02-23T21:49:04.646Z,7.09
2024-02-23T21:54:06.141Z,6.28
2024-02-23T21:59:07.745Z,6.73
2024-02-23T22:04:09.581Z,6.90
2024-02-23T22:09:11.163Z,7.00
2024-02-23T22:14:12.705Z,6.82
2024-02-23T22:19:14.295Z,6.93
2024-02-23T22:24:15.827Z,6.97
2024-02-23T22:29:17.448Z,7.02
2024-02-23T22:34:20.876Z,6.78
2024-02-23T22:39:22.605Z,6.07
2024-02-23T22:44:24.249Z,6.40
2024-02-23T22:49:25.891Z,6.72
2024-02-23T22:54:27.417Z,6.71
2024-02-23T22:59:29.074Z,6.70
2024-02-23T23:04:30.657Z,6.30
2024-02-23T23:09:32.593Z,6.79
2024-02-23T23:14:34.613Z,6.80
2024-02-23T23:19:36.153Z,6.66
2024-02-23T23:24:37.724Z,6.54
2024-02-23T23:29:39.432Z,6.69
2024-02-23T23:34:44.122Z,6.01
2024-02-23T23:39:45.777Z,6.30
2024-02-23T23:44:50.082Z,6.49
2024-02-23T23:49:51.685Z,6.49
2024-02-23T23:54:53.168Z,6.55
2024-02-23T23:59:54.649Z,6.49
